createdAt,value
2023-04-30T00:01:39.021Z,34.50
2023-04-30T00:04:06.622Z,24.60
2023-04-30T00:06:34.209Z,16.60
2023-04-30T00:09:01.812Z,9.30
2023-04-30T00:11:29.237Z,11.20
2023-04-30T00:13:57.430Z,9.50
2023-04-30T00:16:27.619Z,8.60
2023-04-30T00:18:55.274Z,7.70
2023-04-30T00:21:22.584Z,10.10
2023-04-30T00:23:50.350Z,12.30
2023-04-30T00:26:17.779Z,22.40
2023-04-30T00:28:46.946Z,15.40
2023-04-30T00:31:14.552Z,13.60
2023-04-30T00:33:42.102Z,16.10
2023-04-30T00:36:09.442Z,9.80
2023-04-30T00:38:36.900Z,7.70
2023-04-30T00:41:04.544Z,8.00
2023-04-30T00:43:32.378Z,8.90
2023-04-30T00:45:59.849Z,9.00
2023-04-30T00:48:28.131Z,9.00
2023-04-30T00:50:55.633Z,8.30
2023-04-30T00:53:23.280Z,8.90
2023-04-30T00:55:50.588Z,9.40
2023-04-30T00:58:18.770Z,7.10
2023-04-30T01:00:47.367Z,6.90
2023-04-30T01:03:14.798Z,5.60
2023-04-30T01:05:42.429Z,6.20
2023-04-30T01:08:09.919Z,6.10
2023-04-30T01:10:52.641Z,5.80
2023-04-30T01:13:39.741Z,6.00
2023-04-30T01:16:29.283Z,8.90
2023-04-30T01:19:05.074Z,5.30
2023-04-30T01:21:33.830Z,7.30
2023-04-30T01:24:11.015Z,6.10
2023-04-30T01:27:01.683Z,7.50
2023-04-30T01:29:29.616Z,6.70
2023-04-30T01:31:56.877Z,6.60
2023-04-30T01:34:24.399Z,7.70
2023-04-30T01:37:15.056Z,8.70
2023-04-30T01:39:54.969Z,9.40
2023-04-30T01:42:26.116Z,11.10
2023-04-30T01:45:29.246Z,10.60
2023-04-30T01:48:15.534Z,12.10
2023-04-30T01:50:47.864Z,12.50
2023-04-30T01:53:21.884Z,12.30
2023-04-30T01:55:57.817Z,16.60
2023-04-30T01:58:25.403Z,13.60
2023-04-30T02:00:52.350Z,10.40
2023-04-30T02:03:19.301Z,9.50
2023-04-30T02:05:47.470Z,10.40
2023-04-30T02:08:14.360Z,14.00
2023-04-30T02:10:41.285Z,10.10
2023-04-30T02:13:08.678Z,10.80
2023-04-30T02:15:36.024Z,12.30
2023-04-30T02:18:03.530Z,8.80
2023-04-30T02:20:30.976Z,9.50
2023-04-30T02:22:58.481Z,11.00
2023-04-30T02:25:26.541Z,10.30
2023-04-30T02:27:53.795Z,9.30
2023-04-30T02:30:21.324Z,13.10
2023-04-30T02:32:48.870Z,8.90
2023-04-30T02:35:16.561Z,8.30
2023-04-30T02:37:43.976Z,11.10
2023-04-30T02:40:11.738Z,11.20
2023-04-30T02:42:39.456Z,10.30
2023-04-30T02:45:07.163Z,11.20
2023-04-30T02:47:34.585Z,8.20
2023-04-30T02:50:02.002Z,9.10
2023-04-30T02:52:29.408Z,8.30
2023-04-30T02:54:56.768Z,7.70
2023-04-30T02:57:24.011Z,9.20
2023-04-30T02:59:51.376Z,10.30
2023-04-30T03:02:21.996Z,12.50
2023-04-30T03:04:50.208Z,9.50
2023-04-30T03:07:17.770Z,15.20
2023-04-30T03:09:45.172Z,10.00
2023-04-30T03:12:12.440Z,12.30
2023-04-30T03:14:39.865Z,11.90
2023-04-30T03:17:07.168Z,10.20
2023-04-30T03:19:34.496Z,10.40
2023-04-30T03:22:03.732Z,11.30
2023-04-30T03:24:31.153Z,8.00
2023-04-30T03:26:58.729Z,11.50
2023-04-30T03:29:26.968Z,8.30
2023-04-30T03:31:54.350Z,13.80
2023-04-30T03:34:21.736Z,11.90
2023-04-30T03:36:49.398Z,8.70
2023-04-30T03:39:16.872Z,8.30
2023-04-30T03:41:44.389Z,8.80
2023-04-30T03:44:16.218Z,6.80
2023-04-30T03:46:44.003Z,9.70
2023-04-30T03:49:11.653Z,11.00
2023-04-30T03:51:42.139Z,8.20
2023-04-30T03:54:09.783Z,9.00
2023-04-30T03:56:37.536Z,8.10
2023-04-30T03:59:05.753Z,9.30
2023-04-30T04:01:33.409Z,10.20
2023-04-30T04:04:01.316Z,9.30
2023-04-30T04:06:28.817Z,10.40
2023-04-30T04:08:57.419Z,9.00
2023-04-30T04:11:24.913Z,6.80
2023-04-30T04:13:52.227Z,5.60
2023-04-30T04:16:19.927Z,10.70
2023-04-30T04:18:47.339Z,13.30
2023-04-30T04:21:14.894Z,14.90
2023-04-30T04:23:42.236Z,14.80
2023-04-30T04:26:10.864Z,25.20
2023-04-30T04:28:39.350Z,21.80
2023-04-30T04:31:08.115Z,16.90
2023-04-30T04:33:37.410Z,8.10
2023-04-30T04:36:05.445Z,10.50
2023-04-30T04:38:32.889Z,10.60
2023-04-30T04:41:01.201Z,13.00
2023-04-30T04:43:28.718Z,13.00
2023-04-30T04:45:56.312Z,16.00
2023-04-30T04:48:23.865Z,21.80
2023-04-30T04:50:51.315Z,9.40
2023-04-30T04:53:18.671Z,7.70
2023-04-30T04:55:46.665Z,19.10
2023-04-30T04:58:14.060Z,9.90
2023-04-30T05:00:41.421Z,5.30
2023-04-30T05:03:10.329Z,25.00
2023-04-30T05:05:38.080Z,20.60
2023-04-30T05:08:05.652Z,48.80
2023-04-30T05:10:33.194Z,28.40
2023-04-30T05:13:00.763Z,10.50
2023-04-30T05:15:28.177Z,13.90
2023-04-30T05:17:55.819Z,10.80
2023-04-30T05:20:23.421Z,12.90
2023-04-30T05:22:53.217Z,26.30
2023-04-30T05:25:21.030Z,20.20
2023-04-30T05:27:48.379Z,28.70
2023-04-30T05:30:16.111Z,29.90
2023-04-30T05:32:44.594Z,37.10
2023-04-30T05:35:12.240Z,18.90
2023-04-30T05:37:39.783Z,8.00
2023-04-30T05:40:07.939Z,24.20
2023-04-30T05:42:35.437Z,12.40
2023-04-30T05:45:02.962Z,9.10
2023-04-30T05:47:31.401Z,9.30
2023-04-30T05:49:58.749Z,9.50
2023-04-30T05:52:26.123Z,8.20
2023-04-30T05:54:54.210Z,11.40
2023-04-30T05:57:21.559Z,13.50
2023-04-30T05:59:48.901Z,26.20
2023-04-30T06:02:16.560Z,27.50
2023-04-30T06:04:44.221Z,30.50
2023-04-30T06:07:11.659Z,36.20
2023-04-30T06:09:39.207Z,40.90
2023-04-30T06:12:06.665Z,35.50
2023-04-30T06:14:35.058Z,67.60
2023-04-30T06:17:02.558Z,57.10
2023-04-30T06:19:29.997Z,53.70
2023-04-30T06:21:57.396Z,39.80
2023-04-30T06:24:27.763Z,34.30
2023-04-30T06:26:55.077Z,34.20
2023-04-30T06:29:24.542Z,41.10
2023-04-30T06:31:52.565Z,39.80
2023-04-30T06:34:21.224Z,35.80
2023-04-30T06:36:48.775Z,20.90
2023-04-30T06:39:16.282Z,14.90
2023-04-30T06:41:43.884Z,16.30
2023-04-30T06:44:11.348Z,10.00
2023-04-30T06:46:39.256Z,16.50
2023-04-30T06:49:06.642Z,4.50
2023-04-30T06:51:34.332Z,7.00
2023-04-30T06:54:01.834Z,4.00
2023-04-30T06:56:29.236Z,4.90
2023-04-30T06:58:56.548Z,8.10
2023-04-30T07:01:23.847Z,3.10
2023-04-30T07:03:52.977Z,4.00
2023-04-30T07:06:21.886Z,5.70
2023-04-30T07:08:49.509Z,5.50
2023-04-30T07:11:17.183Z,5.30
2023-04-30T07:13:44.672Z,7.90
2023-04-30T07:16:12.098Z,5.10
2023-04-30T07:18:41.104Z,4.40
2023-04-30T07:21:08.960Z,5.50
2023-04-30T07:23:36.403Z,7.20
2023-04-30T07:26:03.952Z,4.40
2023-04-30T07:28:31.399Z,11.80
2023-04-30T07:30:59.022Z,6.00
2023-04-30T07:33:26.502Z,6.00
2023-04-30T07:35:56.315Z,4.50
2023-04-30T07:38:24.075Z,8.10
2023-04-30T07:40:51.558Z,5.20
2023-04-30T07:43:18.957Z,3.30
2023-04-30T07:45:46.870Z,8.30
2023-04-30T07:48:14.452Z,4.80
2023-04-30T07:50:41.867Z,8.00
2023-04-30T07:53:09.984Z,11.20
2023-04-30T07:55:37.372Z,3.30
2023-04-30T07:58:04.887Z,5.10
2023-04-30T08:00:32.395Z,5.70
2023-04-30T08:03:01.048Z,5.20
2023-04-30T08:05:28.612Z,3.00
2023-04-30T08:07:57.196Z,3.90
2023-04-30T08:10:25.615Z,4.20
2023-04-30T08:12:53.403Z,5.00
2023-04-30T08:15:22.146Z,4.40
2023-04-30T08:17:50.596Z,8.70
2023-04-30T08:20:18.053Z,4.10
2023-04-30T08:22:45.617Z,2.60
2023-04-30T08:25:13.103Z,3.00
2023-04-30T08:27:40.752Z,4.60
2023-04-30T08:30:08.954Z,10.60
2023-04-30T08:32:36.524Z,2.70
2023-04-30T08:35:07.460Z,3.70
2023-04-30T08:37:35.056Z,2.80
2023-04-30T08:40:02.628Z,4.40
2023-04-30T08:42:36.532Z,4.70
2023-04-30T08:45:04.519Z,3.60
2023-04-30T08:47:32.194Z,5.30
2023-04-30T08:49:59.587Z,2.80
2023-04-30T08:52:27.240Z,3.30
2023-04-30T08:54:54.625Z,7.00
2023-04-30T08:57:22.118Z,7.10
2023-04-30T08:59:49.631Z,3.60
2023-04-30T09:02:17.235Z,4.50
2023-04-30T09:04:44.709Z,5.90
2023-04-30T09:07:14.650Z,2.40
2023-04-30T09:09:42.064Z,2.50
2023-04-30T09:12:19.273Z,3.90
2023-04-30T09:15:06.339Z,3.70
2023-04-30T09:17:34.686Z,3.00
2023-04-30T09:20:09.424Z,2.60
2023-04-30T09:22:37.760Z,9.30
2023-04-30T09:25:05.900Z,3.90
2023-04-30T09:27:33.264Z,4.90
2023-04-30T09:30:01.083Z,2.90
2023-04-30T09:32:28.164Z,8.40
2023-04-30T09:34:56.142Z,6.60
2023-04-30T09:37:35.903Z,3.20
2023-04-30T09:40:04.603Z,4.50
2023-04-30T09:42:31.877Z,2.80
2023-04-30T09:44:59.534Z,6.20
2023-04-30T09:47:30.128Z,5.70
2023-04-30T09:49:59.851Z,2.70
2023-04-30T09:52:27.335Z,4.60
2023-04-30T09:54:54.849Z,2.80
2023-04-30T09:57:23.877Z,4.20
2023-04-30T09:59:52.510Z,2.80
2023-04-30T10:02:20.526Z,3.30
2023-04-30T10:04:49.761Z,3.60
2023-04-30T10:07:20.849Z,2.80
2023-04-30T10:12:22.172Z,3.00
2023-04-30T10:14:55.146Z,2.70
2023-04-30T10:17:24.407Z,3.20
2023-04-30T10:19:51.900Z,2.20
2023-04-30T10:22:19.875Z,2.30
2023-04-30T10:24:47.825Z,2.00
2023-04-30T10:27:15.279Z,2.20
2023-04-30T10:29:43.288Z,3.50
2023-04-30T10:32:11.940Z,5.90
2023-04-30T10:34:46.172Z,3.90
2023-04-30T10:37:16.590Z,2.60
2023-04-30T10:39:43.993Z,2.70
2023-04-30T10:42:12.043Z,3.00
2023-04-30T10:44:39.881Z,4.60
2023-04-30T10:47:07.894Z,3.40
2023-04-30T10:49:35.509Z,3.80
2023-04-30T10:52:04.337Z,6.00
2023-04-30T10:54:33.624Z,2.40
2023-04-30T10:57:12.790Z,3.90
2023-04-30T11:00:14.651Z,3.20
2023-04-30T11:02:45.814Z,3.40
2023-04-30T11:05:14.839Z,3.20
2023-04-30T11:07:51.541Z,2.70
2023-04-30T11:10:23.579Z,3.50
2023-04-30T11:12:51.828Z,3.20
2023-04-30T11:15:21.043Z,6.60
2023-04-30T11:17:49.202Z,2.50
2023-04-30T11:20:21.757Z,2.50
2023-04-30T11:22:49.176Z,6.10
2023-04-30T11:25:19.962Z,2.50
2023-04-30T11:27:47.278Z,12.80
2023-04-30T11:30:16.526Z,4.50
2023-04-30T11:32:47.604Z,5.50
2023-04-30T11:35:19.974Z,4.40
2023-04-30T11:40:14.792Z,2.80
2023-04-30T11:42:46.042Z,8.70
2023-04-30T11:45:18.081Z,4.30
2023-04-30T11:47:47.198Z,1.40
2023-04-30T11:50:19.626Z,2.40
2023-04-30T11:52:50.901Z,2.10
2023-04-30T11:55:22.997Z,2.40
2023-04-30T11:57:53.551Z,3.90
2023-04-30T12:00:22.303Z,1.60
2023-04-30T12:02:50.242Z,2.50
2023-04-30T12:05:20.275Z,3.10
2023-04-30T12:07:49.130Z,2.60
2023-04-30T12:10:16.819Z,2.80
2023-04-30T12:12:44.995Z,2.10
2023-04-30T12:15:30.625Z,2.60
2023-04-30T12:17:59.021Z,1.70
2023-04-30T12:20:28.515Z,1.90
2023-04-30T12:22:56.235Z,1.60
2023-04-30T12:25:23.849Z,3.30
2023-04-30T12:27:54.343Z,2.30
2023-04-30T12:30:27.115Z,2.50
2023-04-30T12:32:57.661Z,5.00
2023-04-30T12:35:28.260Z,4.20
2023-04-30T12:38:07.384Z,6.20
2023-04-30T12:40:34.811Z,4.20
2023-04-30T12:43:03.161Z,8.50
2023-04-30T12:45:54.567Z,7.70
2023-04-30T12:48:25.576Z,2.50
2023-04-30T12:50:54.295Z,3.30
2023-04-30T12:53:22.169Z,5.90
2023-04-30T12:56:15.594Z,8.60
2023-04-30T12:58:50.045Z,15.10
2023-04-30T13:01:24.784Z,3.10
2023-04-30T13:03:52.835Z,2.40
2023-04-30T13:06:24.488Z,2.20
2023-04-30T13:11:26.989Z,5.60
2023-04-30T13:13:56.138Z,15.50
2023-04-30T13:16:25.112Z,9.20
2023-04-30T13:18:54.393Z,11.00
2023-04-30T13:21:21.785Z,6.00
2023-04-30T13:23:53.337Z,3.60
2023-04-30T13:26:23.721Z,4.30
2023-04-30T13:28:51.764Z,2.20
2023-04-30T13:31:19.721Z,2.00
2023-04-30T13:33:47.120Z,1.50
2023-04-30T13:36:14.707Z,1.70
2023-04-30T13:38:43.433Z,2.60
2023-04-30T13:41:11.212Z,1.90
2023-04-30T13:43:42.047Z,2.50
2023-04-30T13:46:10.055Z,7.20
2023-04-30T13:48:37.512Z,2.60
2023-04-30T13:51:04.789Z,1.60
2023-04-30T13:53:32.585Z,1.50
2023-04-30T13:55:59.958Z,3.30
2023-04-30T13:58:27.587Z,2.20
2023-04-30T14:00:55.120Z,2.70
2023-04-30T14:03:22.666Z,39.40
2023-04-30T14:05:50.234Z,37.40
2023-04-30T14:08:17.753Z,3.40
2023-04-30T14:10:45.229Z,8.90
2023-04-30T14:13:12.773Z,1.90
2023-04-30T14:15:40.469Z,1.10
2023-04-30T14:18:24.618Z,2.50
2023-04-30T14:20:52.221Z,7.20
2023-04-30T14:23:19.409Z,1.50
2023-04-30T14:25:46.679Z,7.80
2023-04-30T14:28:14.061Z,3.90
2023-04-30T14:30:41.607Z,7.20
2023-04-30T14:33:11.354Z,4.50
2023-04-30T14:35:39.033Z,9.70
2023-04-30T14:38:06.696Z,2.80
2023-04-30T14:40:34.325Z,2.10
2023-04-30T14:43:02.054Z,4.20
2023-04-30T14:45:29.687Z,5.00
2023-04-30T14:47:57.113Z,29.70
2023-04-30T14:50:24.731Z,9.30
2023-04-30T14:52:52.018Z,6.10
2023-04-30T14:55:19.588Z,4.10
2023-04-30T14:57:47.171Z,2.30
2023-04-30T15:00:16.457Z,3.40
2023-04-30T15:02:43.888Z,4.00
2023-04-30T15:05:11.706Z,3.90
2023-04-30T15:07:39.918Z,4.00
2023-04-30T15:10:08.482Z,1.80
2023-04-30T15:12:36.201Z,2.80
2023-04-30T15:15:07.109Z,3.50
2023-04-30T15:17:36.983Z,3.50
2023-04-30T15:20:08.488Z,3.80
2023-04-30T15:22:36.074Z,5.50
2023-04-30T15:25:04.725Z,6.90
2023-04-30T15:27:33.910Z,4.10
2023-04-30T15:30:02.079Z,4.30
2023-04-30T15:32:29.984Z,3.50
2023-04-30T15:34:57.433Z,5.20
2023-04-30T15:37:25.011Z,6.80
2023-04-30T15:39:52.330Z,5.70
2023-04-30T15:42:19.806Z,4.50
2023-04-30T15:44:47.222Z,6.00
2023-04-30T15:47:14.632Z,9.90
2023-04-30T15:49:42.640Z,11.40
2023-04-30T15:52:10.765Z,4.90
2023-04-30T15:54:38.125Z,2.70
2023-04-30T15:57:07.677Z,1.30
2023-04-30T15:59:34.509Z,4.30
2023-04-30T16:02:01.871Z,1.50
2023-04-30T16:04:29.767Z,3.00
2023-04-30T16:06:57.657Z,1.90
2023-04-30T16:09:26.160Z,3.10
2023-04-30T16:11:53.918Z,6.20
2023-04-30T16:14:21.073Z,4.90
2023-04-30T16:16:49.357Z,4.60
2023-04-30T16:19:17.887Z,5.70
2023-04-30T16:21:45.193Z,1.90
2023-04-30T16:24:13.032Z,2.70
2023-04-30T16:26:40.548Z,1.20
2023-04-30T16:29:08.702Z,1.00
2023-04-30T16:31:36.286Z,2.10
2023-04-30T16:34:03.784Z,2.00
2023-04-30T16:36:31.418Z,0.80
2023-04-30T16:38:58.839Z,1.10
2023-04-30T16:41:26.829Z,2.60
2023-04-30T16:43:54.177Z,2.10
2023-04-30T16:46:21.668Z,1.10
2023-04-30T16:48:49.835Z,0.90
2023-04-30T16:51:17.414Z,0.60
2023-04-30T16:53:44.960Z,2.80
2023-04-30T16:56:12.523Z,0.70
2023-04-30T16:58:40.138Z,2.60
2023-04-30T17:01:07.687Z,0.80
2023-04-30T17:03:35.501Z,1.90
2023-04-30T17:06:04.189Z,1.10
2023-04-30T17:08:31.685Z,3.20
2023-04-30T17:10:58.934Z,3.90
2023-04-30T17:13:26.488Z,2.30
2023-04-30T17:16:01.752Z,3.90
2023-04-30T17:18:29.709Z,3.00
2023-04-30T17:20:57.246Z,1.50
2023-04-30T17:23:25.768Z,2.50
2023-04-30T17:25:53.511Z,2.90
2023-04-30T17:28:20.829Z,1.70
2023-04-30T17:30:48.420Z,14.40
2023-04-30T17:33:15.910Z,3.70
2023-04-30T17:35:43.729Z,1.50
2023-04-30T17:38:11.690Z,4.20
2023-04-30T17:40:39.501Z,2.20
2023-04-30T17:43:07.516Z,5.00
2023-04-30T17:45:35.079Z,2.00
2023-04-30T17:48:02.409Z,5.00
2023-04-30T17:50:29.860Z,1.50
2023-04-30T17:52:58.015Z,1.40
2023-04-30T17:55:26.061Z,0.80
2023-04-30T17:57:53.367Z,2.10
2023-04-30T18:00:20.720Z,4.50
2023-04-30T18:02:48.571Z,3.50
2023-04-30T18:05:16.868Z,5.90
2023-04-30T18:07:44.360Z,8.70
2023-04-30T18:10:11.728Z,5.30
2023-04-30T18:12:39.134Z,3.20
2023-04-30T18:15:08.708Z,0.90
2023-04-30T18:17:37.525Z,2.20
2023-04-30T18:20:06.160Z,3.70
2023-04-30T18:22:33.590Z,1.50
2023-04-30T18:25:00.960Z,3.10
2023-04-30T18:27:29.416Z,1.80
2023-04-30T18:29:57.249Z,6.90
2023-04-30T18:32:24.858Z,2.50
2023-04-30T18:34:52.598Z,2.80
2023-04-30T18:37:21.104Z,0.90
2023-04-30T18:39:48.563Z,1.80
2023-04-30T18:42:16.240Z,1.10
2023-04-30T18:44:43.674Z,17.60
2023-04-30T18:47:11.672Z,7.90
2023-04-30T18:49:39.309Z,14.00
2023-04-30T18:52:06.764Z,39.70
2023-04-30T18:54:34.779Z,5.40
2023-04-30T18:57:02.622Z,9.50
2023-04-30T18:59:30.180Z,16.60
2023-04-30T19:01:58.156Z,9.80
2023-04-30T19:04:25.606Z,4.30
2023-04-30T19:06:55.186Z,3.10
2023-04-30T19:09:22.746Z,8.10
2023-04-30T19:11:50.486Z,3.50
2023-04-30T19:14:18.166Z,1.30
2023-04-30T19:16:46.369Z,1.50
2023-04-30T19:19:14.064Z,2.10
2023-04-30T19:21:41.557Z,3.00
2023-04-30T19:24:08.884Z,2.90
2023-04-30T19:26:37.717Z,1.00
2023-04-30T19:29:05.014Z,1.10
2023-04-30T19:31:42.579Z,4.00
2023-04-30T19:34:10.155Z,6.20
2023-04-30T19:36:37.547Z,2.20
2023-04-30T19:39:08.993Z,2.10
2023-04-30T19:41:36.239Z,7.20
2023-04-30T19:44:03.666Z,4.80
2023-04-30T19:46:31.692Z,2.50
2023-04-30T19:48:59.340Z,4.80
2023-04-30T19:51:26.902Z,3.40
2023-04-30T19:53:55.258Z,8.00
2023-04-30T19:56:22.668Z,10.80
2023-04-30T19:58:50.016Z,15.90
2023-04-30T20:01:18.665Z,8.10
2023-04-30T20:03:46.310Z,6.90
2023-04-30T20:06:14.007Z,8.00
2023-04-30T20:08:42.025Z,7.50
2023-04-30T20:11:09.424Z,5.70
2023-04-30T20:13:36.880Z,6.60
2023-04-30T20:16:04.394Z,3.80
2023-04-30T20:18:32.510Z,1.80
2023-04-30T20:20:59.840Z,1.90
2023-04-30T20:23:27.825Z,6.30
2023-04-30T20:25:55.337Z,14.00
2023-04-30T20:28:22.837Z,14.30
2023-04-30T20:30:50.097Z,4.50
2023-04-30T20:33:18.991Z,4.60
2023-04-30T20:35:47.584Z,9.20
2023-04-30T20:38:19.536Z,6.50
2023-04-30T20:43:14.862Z,11.50
2023-04-30T20:45:44.692Z,9.30
2023-04-30T20:48:11.652Z,8.80
2023-04-30T20:50:39.196Z,9.10
2023-04-30T20:53:07.481Z,7.90
2023-04-30T20:55:36.465Z,4.50
2023-04-30T20:58:04.090Z,6.30
2023-04-30T21:00:31.504Z,2.40
2023-04-30T21:02:59.025Z,8.10
2023-04-30T21:05:28.740Z,6.70
2023-04-30T21:08:01.250Z,4.80
2023-04-30T21:10:36.406Z,2.60
2023-04-30T21:13:05.526Z,2.50
2023-04-30T21:15:35.429Z,9.10
2023-04-30T21:18:03.082Z,3.90
2023-04-30T21:20:31.965Z,5.20
2023-04-30T21:22:59.524Z,7.40
2023-04-30T21:25:26.980Z,8.30
2023-04-30T21:27:55.486Z,9.80
2023-04-30T21:30:25.663Z,9.20
2023-04-30T21:32:58.952Z,9.20
2023-04-30T21:35:27.942Z,14.60
2023-04-30T21:37:55.920Z,3.40
2023-04-30T21:40:23.159Z,3.10
2023-04-30T21:42:50.566Z,6.50
2023-04-30T21:45:18.317Z,7.80
2023-04-30T21:47:47.755Z,4.90
2023-04-30T21:50:15.283Z,3.30
2023-04-30T21:52:42.776Z,5.10
2023-04-30T21:55:10.266Z,5.00
2023-04-30T21:57:37.909Z,5.60
2023-04-30T22:00:06.687Z,7.10
2023-04-30T22:02:35.134Z,2.20
2023-04-30T22:05:03.170Z,1.70
2023-04-30T22:07:30.838Z,1.80
2023-04-30T22:09:58.601Z,1.70
2023-04-30T22:12:26.398Z,3.10
2023-04-30T22:14:54.527Z,5.60
2023-04-30T22:17:22.309Z,2.40
2023-04-30T22:19:49.691Z,1.10
2023-04-30T22:22:17.081Z,2.00
2023-04-30T22:24:44.505Z,1.60
2023-04-30T22:27:11.953Z,3.60
2023-04-30T22:29:39.531Z,1.60
2023-04-30T22:32:07.595Z,1.70
2023-04-30T22:34:40.263Z,4.50
2023-04-30T22:37:08.179Z,4.30
2023-04-30T22:39:34.993Z,3.20
2023-04-30T22:42:02.322Z,1.50
2023-04-30T22:44:29.173Z,1.10
2023-04-30T22:46:59.513Z,2.00
2023-04-30T22:49:31.325Z,1.30
2023-04-30T22:51:59.893Z,1.50
2023-04-30T22:54:26.903Z,3.60
2023-04-30T22:56:54.190Z,2.40
2023-04-30T22:59:21.558Z,1.90
2023-04-30T23:01:49.465Z,0.80
2023-04-30T23:04:16.726Z,1.80
2023-04-30T23:06:44.201Z,1.20
2023-04-30T23:09:12.946Z,1.20
2023-04-30T23:11:40.754Z,3.00
2023-04-30T23:14:08.415Z,3.00
2023-04-30T23:16:35.901Z,5.80
2023-04-30T23:19:03.140Z,1.50
2023-04-30T23:21:31.531Z,4.30
2023-04-30T23:23:58.952Z,2.10
2023-04-30T23:26:26.310Z,3.40
2023-04-30T23:28:55.365Z,5.80
2023-04-30T23:31:22.753Z,1.30
2023-04-30T23:33:50.224Z,1.40
2023-04-30T23:36:17.738Z,2.50
2023-04-30T23:38:48.150Z,1.50
2023-04-30T23:41:15.115Z,4.30
2023-04-30T23:43:42.220Z,2.30
2023-04-30T23:46:09.664Z,1.80
2023-04-30T23:48:37.425Z,1.30
2023-04-30T23:51:05.297Z,1.60
2023-04-30T23:53:32.692Z,1.90
2023-04-30T23:56:00.211Z,1.80
2023-04-30T23:58:27.873Z,3.60
